sensor_id;sensor_type;location;lat;lon;timestamp;pressure;altitude;pressure_sealevel;temperature;humidity
16481;BME280;44634;54.110;12.138;2023-02-28T00:00:05;103043.78;;;4.12;100.00
16481;BME280;44634;54.110;12.138;2023-02-28T00:02:36;103038.72;;;4.05;100.00
16481;BME280;44634;54.110;12.138;2023-02-28T00:05:05;103033.34;;;4.43;100.00
16481;BME280;44634;54.110;12.138;2023-02-28T00:07:34;103048.84;;;4.20;100.00
16481;BME280;44634;54.110;12.138;2023-02-28T00:10:03;103042.63;;;4.24;100.00
16481;BME280;44634;54.110;12.138;2023-02-28T00:12:32;103046.72;;;4.34;100.00
16481;BME280;44634;54.110;12.138;2023-02-28T00:15:01;103040.19;;;4.16;100.00
16481;BME280;44634;54.110;12.138;2023-02-28T00:17:30;103040.53;;;4.03;100.00
16481;BME280;44634;54.110;12.138;2023-02-28T00:19:58;103031.44;;;3.83;100.00
16481;BME280;44634;54.110;12.138;2023-02-28T00:22:31;103026.88;;;3.90;100.00
16481;BME280;44634;54.110;12.138;2023-02-28T00:24:58;103030.06;;;4.03;100.00
16481;BME280;44634;54.110;12.138;2023-02-28T00:27:26;103031.78;;;4.04;100.00
16481;BME280;44634;54.110;12.138;2023-02-28T00:29:54;103035.69;;;3.87;100.00
16481;BME280;44634;54.110;12.138;2023-02-28T00:32:22;103021.41;;;3.65;100.00
16481;BME280;44634;54.110;12.138;2023-02-28T00:34:51;103007.09;;;3.80;100.00
16481;BME280;44634;54.110;12.138;2023-02-28T00:37:18;103014.59;;;3.94;100.00
16481;BME280;44634;54.110;12.138;2023-02-28T00:39:46;103024.91;;;4.32;100.00
16481;BME280;44634;54.110;12.138;2023-02-28T00:42:14;103042.66;;;4.55;100.00
16481;BME280;44634;54.110;12.138;2023-02-28T00:44:42;103052.63;;;4.08;100.00
16481;BME280;44634;54.110;12.138;2023-02-28T00:47:09;103056.94;;;3.74;100.00
16481;BME280;44634;54.110;12.138;2023-02-28T00:49:37;103042.63;;;3.53;100.00
16481;BME280;44634;54.110;12.138;2023-02-28T00:52:06;103029.09;;;3.36;100.00
16481;BME280;44634;54.110;12.138;2023-02-28T00:54:34;103009.47;;;3.53;100.00
16481;BME280;44634;54.110;12.138;2023-02-28T00:57:02;103012.34;;;3.80;100.00
16481;BME280;44634;54.110;12.138;2023-02-28T00:59:30;103026.59;;;3.67;100.00
16481;BME280;44634;54.110;12.138;2023-02-28T01:01:58;103016.34;;;3.57;100.00
16481;BME280;44634;54.110;12.138;2023-02-28T01:04:28;103021.41;;;3.28;100.00
16481;BME280;44634;54.110;12.138;2023-02-28T01:06:56;103012.63;;;3.31;100.00
16481;BME280;44634;54.110;12.138;2023-02-28T01:09:25;103007.78;;;3.14;100.00
16481;BME280;44634;54.110;12.138;2023-02-28T01:11:53;102989.50;;;3.51;100.00
16481;BME280;44634;54.110;12.138;2023-02-28T01:14:21;103012.81;;;3.23;100.00
16481;BME280;44634;54.110;12.138;2023-02-28T01:16:49;103013.09;;;3.83;100.00
16481;BME280;44634;54.110;12.138;2023-02-28T01:19:18;103034.38;;;3.70;100.00
16481;BME280;44634;54.110;12.138;2023-02-28T01:21:45;103035.31;;;3.67;100.00
16481;BME280;44634;54.110;12.138;2023-02-28T01:24:13;103032.09;;;3.19;100.00
16481;BME280;44634;54.110;12.138;2023-02-28T01:26:42;103010.00;;;3.31;100.00
16481;BME280;44634;54.110;12.138;2023-02-28T01:29:10;103004.88;;;3.26;100.00
16481;BME280;44634;54.110;12.138;2023-02-28T01:31:39;103012.09;;;3.15;100.00
16481;BME280;44634;54.110;12.138;2023-02-28T01:34:07;103016.44;;;3.54;100.00
16481;BME280;44634;54.110;12.138;2023-02-28T01:36:37;103022.63;;;3.50;100.00
16481;BME280;44634;54.110;12.138;2023-02-28T01:39:05;103026.75;;;3.23;100.00
16481;BME280;44634;54.110;12.138;2023-02-28T01:41:34;103017.03;;;2.88;100.00
16481;BME280;44634;54.110;12.138;2023-02-28T01:44:06;103001.50;;;3.22;100.00
16481;BME280;44634;54.110;12.138;2023-02-28T01:46:35;103025.34;;;3.46;100.00
16481;BME280;44634;54.110;12.138;2023-02-28T01:49:07;103036.66;;;3.48;100.00
16481;BME280;44634;54.110;12.138;2023-02-28T01:51:40;103033.47;;;3.71;100.00
16481;BME280;44634;54.110;12.138;2023-02-28T01:54:15;103053.72;;;3.64;100.00
16481;BME280;44634;54.110;12.138;2023-02-28T01:56:47;103059.78;;;3.65;100.00
16481;BME280;44634;54.110;12.138;2023-02-28T01:59:22;103070.31;;;3.63;100.00
16481;BME280;44634;54.110;12.138;2023-02-28T02:01:52;103060.53;;;2.91;100.00
16481;BME280;44634;54.110;12.138;2023-02-28T02:04:21;103039.19;;;2.69;100.00
16481;BME280;44634;54.110;12.138;2023-02-28T02:06:51;103013.19;;;2.64;100.00
16481;BME280;44634;54.110;12.138;2023-02-28T02:09:19;103000.75;;;2.77;100.00
16481;BME280;44634;54.110;12.138;2023-02-28T02:11:47;103001.53;;;2.81;100.00
16481;BME280;44634;54.110;12.138;2023-02-28T02:14:31;103009.16;;;3.67;100.00
16481;BME280;44634;54.110;12.138;2023-02-28T02:17:10;103023.88;;;3.71;100.00
16481;BME280;44634;54.110;12.138;2023-02-28T02:23:18;103018.03;;;2.83;100.00
16481;BME280;44634;54.110;12.138;2023-02-28T02:25:54;103024.78;;;3.33;100.00
16481;BME280;44634;54.110;12.138;2023-02-28T02:31:38;103029.50;;;2.74;100.00
16481;BME280;44634;54.110;12.138;2023-02-28T02:34:41;103019.72;;;2.85;100.00
16481;BME280;44634;54.110;12.138;2023-02-28T02:37:24;103029.75;;;3.05;100.00
16481;BME280;44634;54.110;12.138;2023-02-28T02:40:00;103038.06;;;2.82;100.00
16481;BME280;44634;54.110;12.138;2023-02-28T02:42:37;103029.38;;;2.82;100.00
16481;BME280;44634;54.110;12.138;2023-02-28T02:45:12;103022.25;;;1.97;100.00
16481;BME280;44634;54.110;12.138;2023-02-28T02:47:42;102973.56;;;1.47;100.00
16481;BME280;44634;54.110;12.138;2023-02-28T02:50:17;102944.53;;;2.15;100.00
16481;BME280;44634;54.110;12.138;2023-02-28T02:52:49;102961.97;;;2.13;100.00
16481;BME280;44634;54.110;12.138;2023-02-28T02:55:20;102945.31;;;1.72;100.00
16481;BME280;44634;54.110;12.138;2023-02-28T02:57:52;102916.44;;;1.33;100.00
16481;BME280;44634;54.110;12.138;2023-02-28T03:00:23;102902.38;;;1.91;100.00
16481;BME280;44634;54.110;12.138;2023-02-28T03:02:55;102899.06;;;1.82;100.00
16481;BME280;44634;54.110;12.138;2023-02-28T03:05:26;102906.28;;;1.67;100.00
16481;BME280;44634;54.110;12.138;2023-02-28T03:07:56;102908.28;;;1.99;100.00
16481;BME280;44634;54.110;12.138;2023-02-28T03:10:33;102942.16;;;2.47;100.00
16481;BME280;44634;54.110;12.138;2023-02-28T03:13:41;102974.63;;;2.77;100.00
16481;BME280;44634;54.110;12.138;2023-02-28T03:16:35;102997.88;;;2.88;100.00
16481;BME280;44634;54.110;12.138;2023-02-28T03:19:29;103018.84;;;2.85;100.00
16481;BME280;44634;54.110;12.138;2023-02-28T03:22:23;103029.13;;;2.51;100.00
16481;BME280;44634;54.110;12.138;2023-02-28T03:24:58;103026.84;;;2.34;100.00
16481;BME280;44634;54.110;12.138;2023-02-28T03:27:29;103006.16;;;2.23;100.00
16481;BME280;44634;54.110;12.138;2023-02-28T03:30:01;103010.84;;;2.51;100.00
16481;BME280;44634;54.110;12.138;2023-02-28T03:32:35;103041.38;;;2.47;100.00
16481;BME280;44634;54.110;12.138;2023-02-28T03:35:09;103044.19;;;2.36;100.00
16481;BME280;44634;54.110;12.138;2023-02-28T03:37:41;103050.69;;;2.13;100.00
16481;BME280;44634;54.110;12.138;2023-02-28T03:40:12;103052.34;;;2.17;100.00
16481;BME280;44634;54.110;12.138;2023-02-28T03:42:44;103031.34;;;1.72;100.00
16481;BME280;44634;54.110;12.138;2023-02-28T03:45:17;102995.50;;;1.32;100.00
16481;BME280;44634;54.110;12.138;2023-02-28T03:47:49;102964.03;;;1.43;100.00
16481;BME280;44634;54.110;12.138;2023-02-28T03:50:21;102938.41;;;1.14;100.00
16481;BME280;44634;54.110;12.138;2023-02-28T03:52:56;102933.63;;;0.85;100.00
16481;BME280;44634;54.110;12.138;2023-02-28T03:55:30;102909.44;;;0.78;100.00
16481;BME280;44634;54.110;12.138;2023-02-28T03:58:04;102885.00;;;0.88;100.00
16481;BME280;44634;54.110;12.138;2023-02-28T04:00:35;102867.94;;;0.68;100.00
16481;BME280;44634;54.110;12.138;2023-02-28T04:03:05;102848.84;;;0.67;100.00
16481;BME280;44634;54.110;12.138;2023-02-28T04:05:45;102833.25;;;1.21;100.00
16481;BME280;44634;54.110;12.138;2023-02-28T04:08:16;102839.97;;;1.34;100.00
16481;BME280;44634;54.110;12.138;2023-02-28T04:10:48;102867.19;;;1.15;100.00
16481;BME280;44634;54.110;12.138;2023-02-28T04:13:18;102878.97;;;1.39;100.00
16481;BME280;44634;54.110;12.138;2023-02-28T04:15:46;102891.31;;;1.28;100.00
16481;BME280;44634;54.110;12.138;2023-02-28T04:18:14;102901.00;;;1.19;100.00
16481;BME280;44634;54.110;12.138;2023-02-28T04:20:41;102895.50;;;1.86;100.00
16481;BME280;44634;54.110;12.138;2023-02-28T04:23:09;102918.84;;;2.38;100.00
16481;BME280;44634;54.110;12.138;2023-02-28T04:25:38;102967.22;;;2.11;100.00
16481;BME280;44634;54.110;12.138;2023-02-28T04:28:07;102988.00;;;2.16;100.00
16481;BME280;44634;54.110;12.138;2023-02-28T04:30:37;103010.47;;;2.24;100.00
16481;BME280;44634;54.110;12.138;2023-02-28T04:33:05;103020.00;;;2.27;100.00
16481;BME280;44634;54.110;12.138;2023-02-28T04:35:33;103014.94;;;1.67;100.00
16481;BME280;44634;54.110;12.138;2023-02-28T04:38:01;102993.56;;;1.97;100.00
16481;BME280;44634;54.110;12.138;2023-02-28T04:40:29;103014.38;;;1.48;100.00
16481;BME280;44634;54.110;12.138;2023-02-28T04:42:58;102987.16;;;1.66;100.00
16481;BME280;44634;54.110;12.138;2023-02-28T04:45:26;102982.16;;;2.03;100.00
16481;BME280;44634;54.110;12.138;2023-02-28T04:47:56;102994.34;;;1.50;100.00
16481;BME280;44634;54.110;12.138;2023-02-28T04:50:24;102980.53;;;1.45;100.00
16481;BME280;44634;54.110;12.138;2023-02-28T04:52:51;102975.75;;;1.14;100.00
16481;BME280;44634;54.110;12.138;2023-02-28T04:55:19;102959.25;;;1.14;100.00
16481;BME280;44634;54.110;12.138;2023-02-28T04:57:47;102959.03;;;0.69;100.00
16481;BME280;44634;54.110;12.138;2023-02-28T05:00:17;102931.53;;;1.10;100.00
16481;BME280;44634;54.110;12.138;2023-02-28T05:02:45;102930.63;;;1.12;100.00
16481;BME280;44634;54.110;12.138;2023-02-28T05:05:12;102938.81;;;1.46;100.00
16481;BME280;44634;54.110;12.138;2023-02-28T05:07:44;102949.56;;;1.77;100.00
16481;BME280;44634;54.110;12.138;2023-02-28T05:10:12;102968.75;;;1.19;100.00
16481;BME280;44634;54.110;12.138;2023-02-28T05:12:40;102955.81;;;1.67;100.00
16481;BME280;44634;54.110;12.138;2023-02-28T05:15:12;102976.50;;;1.78;100.00
16481;BME280;44634;54.110;12.138;2023-02-28T05:17:41;102998.91;;;1.90;100.00
16481;BME280;44634;54.110;12.138;2023-02-28T05:20:11;103024.06;;;1.94;100.00
16481;BME280;44634;54.110;12.138;2023-02-28T05:22:42;103011.59;;;1.57;100.00
16481;BME280;44634;54.110;12.138;2023-02-28T05:25:12;103033.69;;;1.90;100.00
16481;BME280;44634;54.110;12.138;2023-02-28T05:27:41;103019.25;;;1.09;100.00
16481;BME280;44634;54.110;12.138;2023-02-28T05:30:10;103002.13;;;0.93;100.00
16481;BME280;44634;54.110;12.138;2023-02-28T05:32:38;102994.72;;;1.26;100.00
16481;BME280;44634;54.110;12.138;2023-02-28T05:35:11;103016.94;;;1.51;100.00
16481;BME280;44634;54.110;12.138;2023-02-28T05:37:39;103010.91;;;0.83;100.00
16481;BME280;44634;54.110;12.138;2023-02-28T05:40:08;102986.75;;;0.73;100.00
16481;BME280;44634;54.110;12.138;2023-02-28T05:42:36;102958.00;;;0.81;100.00
16481;BME280;44634;54.110;12.138;2023-02-28T05:45:05;102958.13;;;0.70;100.00
16481;BME280;44634;54.110;12.138;2023-02-28T05:47:33;102949.16;;;0.94;100.00
16481;BME280;44634;54.110;12.138;2023-02-28T05:50:01;102967.84;;;1.22;100.00
16481;BME280;44634;54.110;12.138;2023-02-28T05:52:30;102977.50;;;1.14;100.00
16481;BME280;44634;54.110;12.138;2023-02-28T05:54:58;102974.03;;;1.16;100.00
16481;BME280;44634;54.110;12.138;2023-02-28T05:57:28;102993.34;;;1.57;100.00
16481;BME280;44634;54.110;12.138;2023-02-28T05:59:56;103020.91;;;1.18;100.00
16481;BME280;44634;54.110;12.138;2023-02-28T06:02:24;103007.75;;;0.59;100.00
16481;BME280;44634;54.110;12.138;2023-02-28T06:04:52;102983.03;;;0.93;100.00
16481;BME280;44634;54.110;12.138;2023-02-28T06:07:19;102971.75;;;0.92;100.00
16481;BME280;44634;54.110;12.138;2023-02-28T06:09:50;102965.63;;;0.95;100.00
16481;BME280;44634;54.110;12.138;2023-02-28T06:12:17;102955.56;;;0.67;100.00
16481;BME280;44634;54.110;12.138;2023-02-28T06:14:45;102949.75;;;1.11;100.00
16481;BME280;44634;54.110;12.138;2023-02-28T06:17:13;102953.50;;;0.92;100.00
16481;BME280;44634;54.110;12.138;2023-02-28T06:19:41;102943.38;;;0.74;100.00
16481;BME280;44634;54.110;12.138;2023-02-28T06:22:08;102942.31;;;0.87;100.00
16481;BME280;44634;54.110;12.138;2023-02-28T06:24:36;102944.94;;;0.84;100.00
16481;BME280;44634;54.110;12.138;2023-02-28T06:27:05;102954.84;;;0.56;100.00
16481;BME280;44634;54.110;12.138;2023-02-28T06:29:34;102950.63;;;0.47;100.00
16481;BME280;44634;54.110;12.138;2023-02-28T06:32:02;102939.88;;;0.01;100.00
16481;BME280;44634;54.110;12.138;2023-02-28T06:34:30;102909.03;;;0.44;100.00
16481;BME280;44634;54.110;12.138;2023-02-28T06:36:57;102916.72;;;0.52;100.00
16481;BME280;44634;54.110;12.138;2023-02-28T06:39:28;102930.81;;;0.36;100.00
16481;BME280;44634;54.110;12.138;2023-02-28T06:41:56;102925.34;;;0.55;100.00
16481;BME280;44634;54.110;12.138;2023-02-28T06:44:25;102930.53;;;0.60;100.00
16481;BME280;44634;54.110;12.138;2023-02-28T06:46:53;102934.50;;;0.85;100.00
16481;BME280;44634;54.110;12.138;2023-02-28T06:49:21;102947.91;;;0.55;100.00
16481;BME280;44634;54.110;12.138;2023-02-28T06:51:49;102949.25;;;0.17;100.00
16481;BME280;44634;54.110;12.138;2023-02-28T06:54:16;102932.09;;;0.01;100.00
16481;BME280;44634;54.110;12.138;2023-02-28T06:56:44;102918.47;;;0.51;100.00
16481;BME280;44634;54.110;12.138;2023-02-28T06:59:13;102922.97;;;0.39;100.00
16481;BME280;44634;54.110;12.138;2023-02-28T07:01:42;102925.25;;;0.65;100.00
16481;BME280;44634;54.110;12.138;2023-02-28T07:04:10;102910.19;;;0.85;100.00
16481;BME280;44634;54.110;12.138;2023-02-28T07:06:39;102920.84;;;0.68;100.00
16481;BME280;44634;54.110;12.138;2023-02-28T07:09:07;102915.81;;;0.56;100.00
16481;BME280;44634;54.110;12.138;2023-02-28T07:11:35;102904.75;;;1.00;100.00
16481;BME280;44634;54.110;12.138;2023-02-28T07:14:03;102918.66;;;1.02;100.00
16481;BME280;44634;54.110;12.138;2023-02-28T07:16:31;102917.72;;;1.60;100.00
16481;BME280;44634;54.110;12.138;2023-02-28T07:19:00;102947.22;;;1.62;100.00
16481;BME280;44634;54.110;12.138;2023-02-28T07:21:28;102963.53;;;1.75;100.00
16481;BME280;44634;54.110;12.138;2023-02-28T07:23:56;102982.97;;;2.06;100.00
16481;BME280;44634;54.110;12.138;2023-02-28T07:26:24;103011.31;;;2.26;100.00
16481;BME280;44634;54.110;12.138;2023-02-28T07:28:52;103026.06;;;2.27;100.00
16481;BME280;44634;54.110;12.138;2023-02-28T07:31:20;103038.19;;;2.30;100.00
16481;BME280;44634;54.110;12.138;2023-02-28T07:33:48;103046.31;;;2.15;100.00
16481;BME280;44634;54.110;12.138;2023-02-28T07:36:17;103033.78;;;2.80;100.00
16481;BME280;44634;54.110;12.138;2023-02-28T07:38:47;103055.34;;;2.88;100.00
16481;BME280;44634;54.110;12.138;2023-02-28T07:41:17;103062.44;;;2.83;100.00
16481;BME280;44634;54.110;12.138;2023-02-28T07:43:45;103072.50;;;3.01;100.00
16481;BME280;44634;54.110;12.138;2023-02-28T07:46:15;103085.06;;;3.25;100.00
16481;BME280;44634;54.110;12.138;2023-02-28T07:48:44;103092.75;;;2.91;100.00
16481;BME280;44634;54.110;12.138;2023-02-28T07:51:12;103087.09;;;2.68;100.00
16481;BME280;44634;54.110;12.138;2023-02-28T07:53:41;103089.22;;;3.36;100.00
16481;BME280;44634;54.110;12.138;2023-02-28T07:56:10;103095.50;;;3.27;100.00
16481;BME280;44634;54.110;12.138;2023-02-28T07:58:38;103103.19;;;3.35;100.00
16481;BME280;44634;54.110;12.138;2023-02-28T08:01:06;103111.59;;;3.86;100.00
16481;BME280;44634;54.110;12.138;2023-02-28T08:03:36;103114.72;;;4.02;100.00
16481;BME280;44634;54.110;12.138;2023-02-28T08:06:05;103091.69;;;4.83;100.00
16481;BME280;44634;54.110;12.138;2023-02-28T08:08:33;103128.72;;;5.01;100.00
16481;BME280;44634;54.110;12.138;2023-02-28T08:11:03;103141.31;;;5.77;100.00
16481;BME280;44634;54.110;12.138;2023-02-28T08:13:31;103162.09;;;6.41;100.00
16481;BME280;44634;54.110;12.138;2023-02-28T08:16:01;103172.56;;;6.92;100.00
16481;BME280;44634;54.110;12.138;2023-02-28T08:18:30;103182.69;;;7.51;100.00
16481;BME280;44634;54.110;12.138;2023-02-28T08:20:57;103194.31;;;7.45;100.00
16481;BME280;44634;54.110;12.138;2023-02-28T08:23:25;103199.59;;;7.69;100.00
16481;BME280;44634;54.110;12.138;2023-02-28T08:25:53;103208.41;;;8.35;100.00
16481;BME280;44634;54.110;12.138;2023-02-28T08:28:23;103224.69;;;8.01;100.00
16481;BME280;44634;54.110;12.138;2023-02-28T08:30:53;103218.63;;;7.75;100.00
16481;BME280;44634;54.110;12.138;2023-02-28T08:33:21;103211.31;;;9.51;100.00
16481;BME280;44634;54.110;12.138;2023-02-28T08:35:52;103225.31;;;8.29;100.00
16481;BME280;44634;54.110;12.138;2023-02-28T08:38:21;103224.22;;;8.35;100.00
16481;BME280;44634;54.110;12.138;2023-02-28T08:40:49;103210.09;;;10.14;100.00
16481;BME280;44634;54.110;12.138;2023-02-28T08:43:17;103221.66;;;8.96;100.00
16481;BME280;44634;54.110;12.138;2023-02-28T08:45:46;103197.44;;;10.75;100.00
16481;BME280;44634;54.110;12.138;2023-02-28T08:48:14;103198.56;;;10.69;100.00
16481;BME280;44634;54.110;12.138;2023-02-28T08:50:45;103204.28;;;10.79;100.00
16481;BME280;44634;54.110;12.138;2023-02-28T08:53:30;103212.25;;;11.12;100.00
16481;BME280;44634;54.110;12.138;2023-02-28T08:56:00;103207.31;;;10.71;99.69
16481;BME280;44634;54.110;12.138;2023-02-28T08:58:28;103208.53;;;10.47;100.00
16481;BME280;44634;54.110;12.138;2023-02-28T09:00:57;103215.81;;;10.24;100.00
16481;BME280;44634;54.110;12.138;2023-02-28T09:03:27;103214.59;;;9.94;100.00
16481;BME280;44634;54.110;12.138;2023-02-28T09:05:56;103213.47;;;9.99;100.00
16481;BME280;44634;54.110;12.138;2023-02-28T09:08:24;103226.44;;;9.66;100.00
16481;BME280;44634;54.110;12.138;2023-02-28T09:10:52;103212.69;;;10.87;100.00
16481;BME280;44634;54.110;12.138;2023-02-28T09:13:20;103214.44;;;10.52;100.00
16481;BME280;44634;54.110;12.138;2023-02-28T09:15:48;103220.06;;;10.63;100.00
16481;BME280;44634;54.110;12.138;2023-02-28T09:18:17;103221.88;;;10.07;100.00
16481;BME280;44634;54.110;12.138;2023-02-28T09:20:45;103218.72;;;10.54;100.00
16481;BME280;44634;54.110;12.138;2023-02-28T09:23:13;103222.69;;;10.46;100.00
16481;BME280;44634;54.110;12.138;2023-02-28T09:25:45;103212.59;;;12.03;89.62
16481;BME280;44634;54.110;12.138;2023-02-28T09:28:14;103209.63;;;12.39;71.59
16481;BME280;44634;54.110;12.138;2023-02-28T09:30:45;103201.78;;;13.40;70.58
16481;BME280;44634;54.110;12.138;2023-02-28T09:33:14;103212.97;;;13.17;62.91
16481;BME280;44634;54.110;12.138;2023-02-28T09:35:43;103213.56;;;12.78;67.65
16481;BME280;44634;54.110;12.138;2023-02-28T09:38:10;103217.47;;;12.87;70.67
16481;BME280;44634;54.110;12.138;2023-02-28T09:40:44;103214.53;;;13.21;66.25
16481;BME280;44634;54.110;12.138;2023-02-28T09:43:15;103221.53;;;13.36;54.44
16481;BME280;44634;54.110;12.138;2023-02-28T09:45:50;103218.81;;;12.94;59.41
16481;BME280;44634;54.110;12.138;2023-02-28T09:48:28;103219.91;;;12.75;60.32
16481;BME280;44634;54.110;12.138;2023-02-28T09:51:01;103213.88;;;14.55;49.74
16481;BME280;44634;54.110;12.138;2023-02-28T09:53:32;103218.41;;;13.44;52.18
16481;BME280;44634;54.110;12.138;2023-02-28T09:56:03;103210.41;;;14.14;46.71
16481;BME280;44634;54.110;12.138;2023-02-28T09:58:38;103208.19;;;15.00;46.24
16481;BME280;44634;54.110;12.138;2023-02-28T10:01:12;103226.75;;;13.38;47.31
16481;BME280;44634;54.110;12.138;2023-02-28T10:03:49;103208.19;;;15.12;45.58
16481;BME280;44634;54.110;12.138;2023-02-28T10:06:26;103223.19;;;13.94;44.81
16481;BME280;44634;54.110;12.138;2023-02-28T10:09:01;103222.25;;;14.22;44.25
16481;BME280;44634;54.110;12.138;2023-02-28T10:11:29;103218.03;;;14.47;48.09
16481;BME280;44634;54.110;12.138;2023-02-28T10:14:01;103234.63;;;13.68;44.76
16481;BME280;44634;54.110;12.138;2023-02-28T10:16:34;103217.22;;;14.72;40.76
16481;BME280;44634;54.110;12.138;2023-02-28T10:19:09;103226.97;;;14.58;43.64
16481;BME280;44634;54.110;12.138;2023-02-28T10:21:44;103224.31;;;14.05;43.76
16481;BME280;44634;54.110;12.138;2023-02-28T10:24:20;103219.13;;;15.59;40.17
16481;BME280;44634;54.110;12.138;2023-02-28T10:26:52;103212.50;;;16.38;39.81
16481;BME280;44634;54.110;12.138;2023-02-28T10:29:23;103218.81;;;14.87;41.29
16481;BME280;44634;54.110;12.138;2023-02-28T10:31:51;103213.41;;;15.52;38.82
16481;BME280;44634;54.110;12.138;2023-02-28T10:34:19;103217.50;;;14.54;40.20
16481;BME280;44634;54.110;12.138;2023-02-28T10:36:49;103207.72;;;15.69;38.25
16481;BME280;44634;54.110;12.138;2023-02-28T10:39:38;103208.38;;;14.71;40.09
16481;BME280;44634;54.110;12.138;2023-02-28T10:42:22;103199.13;;;15.28;37.70
16481;BME280;44634;54.110;12.138;2023-02-28T10:45:10;103197.16;;;15.81;37.06
16481;BME280;44634;54.110;12.138;2023-02-28T10:47:48;103198.25;;;15.40;38.28
16481;BME280;44634;54.110;12.138;2023-02-28T10:50:44;103205.31;;;15.03;39.46
16481;BME280;44634;54.110;12.138;2023-02-28T10:53:24;103203.28;;;15.94;38.44
16481;BME280;44634;54.110;12.138;2023-02-28T10:55:57;103214.47;;;15.62;37.88
16481;BME280;44634;54.110;12.138;2023-02-28T10:58:27;103208.47;;;15.59;39.08
16481;BME280;44634;54.110;12.138;2023-02-28T11:00:55;103203.50;;;15.29;39.28
16481;BME280;44634;54.110;12.138;2023-02-28T11:03:29;103207.47;;;14.18;41.52
16481;BME280;44634;54.110;12.138;2023-02-28T11:05:58;103210.03;;;14.20;40.83
16481;BME280;44634;54.110;12.138;2023-02-28T11:08:27;103205.13;;;15.06;39.02
16481;BME280;44634;54.110;12.138;2023-02-28T11:10:56;103202.94;;;14.73;37.36
16481;BME280;44634;54.110;12.138;2023-02-28T11:13:31;103200.31;;;15.24;37.34
16481;BME280;44634;54.110;12.138;2023-02-28T11:16:03;103196.91;;;15.09;36.83
16481;BME280;44634;54.110;12.138;2023-02-28T11:18:39;103190.56;;;15.61;38.61
16481;BME280;44634;54.110;12.138;2023-02-28T11:21:09;103187.69;;;15.64;38.72
16481;BME280;44634;54.110;12.138;2023-02-28T11:23:41;103191.63;;;15.45;37.34
16481;BME280;44634;54.110;12.138;2023-02-28T11:26:09;103192.28;;;15.49;36.34
16481;BME280;44634;54.110;12.138;2023-02-28T11:28:39;103182.63;;;15.23;36.81
16481;BME280;44634;54.110;12.138;2023-02-28T11:31:18;103174.63;;;16.68;37.79
16481;BME280;44634;54.110;12.138;2023-02-28T11:33:48;103187.69;;;16.24;35.06
16481;BME280;44634;54.110;12.138;2023-02-28T11:36:19;103189.53;;;15.00;36.98
16481;BME280;44634;54.110;12.138;2023-02-28T11:38:49;103196.34;;;15.04;38.69
16481;BME280;44634;54.110;12.138;2023-02-28T11:44:23;103185.28;;;15.35;37.89
16481;BME280;44634;54.110;12.138;2023-02-28T11:46:58;103181.41;;;15.65;36.89
16481;BME280;44634;54.110;12.138;2023-02-28T11:49:36;103173.28;;;15.66;39.03
16481;BME280;44634;54.110;12.138;2023-02-28T11:52:14;103165.41;;;15.52;38.94
16481;BME280;44634;54.110;12.138;2023-02-28T11:54:59;103159.72;;;16.41;37.97
16481;BME280;44634;54.110;12.138;2023-02-28T11:57:36;103156.72;;;15.74;37.05
16481;BME280;44634;54.110;12.138;2023-02-28T12:00:17;103151.41;;;15.98;38.65
16481;BME280;44634;54.110;12.138;2023-02-28T12:02:57;103135.94;;;15.90;39.94
16481;BME280;44634;54.110;12.138;2023-02-28T12:05:31;103140.00;;;14.97;38.41
16481;BME280;44634;54.110;12.138;2023-02-28T12:08:15;103129.88;;;15.88;38.19
16481;BME280;44634;54.110;12.138;2023-02-28T12:10:57;103136.69;;;14.81;38.41
16481;BME280;44634;54.110;12.138;2023-02-28T12:13:39;103131.19;;;15.83;37.98
16481;BME280;44634;54.110;12.138;2023-02-28T12:16:33;103130.34;;;15.82;38.09
16481;BME280;44634;54.110;12.138;2023-02-28T12:19:16;103126.16;;;15.41;37.95
16481;BME280;44634;54.110;12.138;2023-02-28T12:22:10;103119.28;;;16.46;37.03
16481;BME280;44634;54.110;12.138;2023-02-28T12:24:55;103120.13;;;16.81;37.46
16481;BME280;44634;54.110;12.138;2023-02-28T12:27:29;103111.56;;;16.19;38.32
16481;BME280;44634;54.110;12.138;2023-02-28T12:30:03;103116.16;;;16.63;39.03
16481;BME280;44634;54.110;12.138;2023-02-28T12:32:35;103109.59;;;16.10;39.44
16481;BME280;44634;54.110;12.138;2023-02-28T12:35:11;103109.50;;;16.57;38.79
16481;BME280;44634;54.110;12.138;2023-02-28T12:37:43;103106.78;;;15.39;39.68
16481;BME280;44634;54.110;12.138;2023-02-28T12:40:18;103109.47;;;16.11;39.90
16481;BME280;44634;54.110;12.138;2023-02-28T12:42:50;103103.94;;;15.66;40.39
16481;BME280;44634;54.110;12.138;2023-02-28T12:45:20;103120.38;;;15.60;40.37
16481;BME280;44634;54.110;12.138;2023-02-28T12:47:52;103113.06;;;15.99;39.39
16481;BME280;44634;54.110;12.138;2023-02-28T12:50:24;103112.69;;;14.16;42.42
16481;BME280;44634;54.110;12.138;2023-02-28T12:52:58;103108.66;;;15.01;42.91
16481;BME280;44634;54.110;12.138;2023-02-28T12:55:32;103104.22;;;15.74;41.38
16481;BME280;44634;54.110;12.138;2023-02-28T12:58:09;103119.84;;;13.88;44.83
16481;BME280;44634;54.110;12.138;2023-02-28T13:00:49;103118.56;;;14.99;44.13
16481;BME280;44634;54.110;12.138;2023-02-28T13:03:37;103114.72;;;15.65;41.97
16481;BME280;44634;54.110;12.138;2023-02-28T13:06:18;103114.25;;;15.71;43.24
16481;BME280;44634;54.110;12.138;2023-02-28T13:08:59;103110.44;;;16.10;41.10
16481;BME280;44634;54.110;12.138;2023-02-28T13:11:29;103110.16;;;16.26;40.58